Time,TemperatureF,DewpointF,PressureIn,WindDirection,WindDirectionDegrees,WindSpeedMPH,WindSpeedGustMPH,Humidity,HourlyPrecipIn,Conditions,Clouds,dailyrainin,SoftwareType,DateUTC
2013-04-12 00:00:00,70.0,67.9,29.74,SSE,148,9.0,20.0,93,0.00,,SKC,0.00,VWS V14.01,2013-04-12 04:00:00,
2013-04-12 01:00:00,69.0,67.5,29.73,South,171,3.0,17.0,95,0.00,,SKC,0.00,VWS V14.01,2013-04-12 05:00:00,
2013-04-12 02:00:00,68.6,67.7,29.72,SSE,150,9.0,17.0,97,0.00,,SKC,0.00,VWS V14.01,2013-04-12 06:00:00,
2013-04-12 03:00:00,69.0,68.1,29.69,SSW,195,3.0,18.0,97,0.00,,SKC,0.00,VWS V14.01,2013-04-12 07:00:00,
2013-04-12 04:00:00,68.5,67.9,29.68,SW,214,3.0,14.0,98,0.01,,SKC,0.01,VWS V14.01,2013-04-12 08:00:00,
2013-04-12 05:00:00,68.2,67.6,29.68,SSW,194,2.0,15.0,98,0.01,,SKC,0.01,VWS V14.01,2013-04-12 09:00:00,
2013-04-12 06:00:00,67.9,67.3,29.67,SW,233,3.0,14.0,98,0.00,,SKC,0.01,VWS V14.01,2013-04-12 10:00:00,
2013-04-12 07:00:00,68.8,67.6,29.68,South,171,9.0,21.0,96,0.00,,SKC,0.01,VWS V14.01,2013-04-12 11:00:00,
2013-04-12 08:00:00,69.6,67.5,29.69,SW,236,5.0,17.0,93,0.00,,SKC,0.01,VWS V14.01,2013-04-12 12:00:00,
2013-04-12 09:00:00,70.9,67.8,29.70,West,269,13.0,17.0,90,0.00,,SKC,0.01,VWS V14.01,2013-04-12 13:00:00,
2013-04-12 10:00:00,68.5,65.8,29.73,WSW,252,4.0,15.0,91,0.01,,SKC,0.02,VWS V14.01,2013-04-12 14:00:00,
2013-04-12 11:00:00,69.0,67.8,29.73,West,263,6.0,10.0,96,0.04,,SKC,0.05,VWS V14.01,2013-04-12 15:00:00,
2013-04-12 12:00:00,68.4,66.0,29.75,West,259,7.0,16.0,92,0.04,,SKC,0.06,VWS V14.01,2013-04-12 16:00:00,
2013-04-12 13:00:00,72.2,65.0,29.74,West,278,10.0,19.0,78,0.01,,SKC,0.06,VWS V14.01,2013-04-12 17:00:00,
2013-04-12 14:00:00,74.0,64.0,29.73,WSW,239,5.0,19.0,71,0.00,,SKC,0.06,VWS V14.01,2013-04-12 18:00:00,
2013-04-12 15:00:00,77.9,59.4,29.72,West,276,0.0,23.0,53,0.00,,SKC,0.06,VWS V14.01,2013-04-12 19:00:00,
2013-04-12 16:00:00,78.4,55.9,29.70,West,279,16.0,26.0,46,0.00,,SKC,0.06,VWS V14.01,2013-04-12 20:00:00,
2013-04-12 17:00:00,78.2,51.2,29.70,SW,220,10.0,25.0,39,0.00,,SKC,0.06,VWS V14.01,2013-04-12 21:00:00,
2013-04-12 18:00:00,76.9,48.7,29.72,WSW,252,12.0,21.0,37,0.00,,SKC,0.06,VWS V14.01,2013-04-12 22:00:00,
2013-04-12 19:00:00,74.2,50.9,29.73,SW,234,2.0,19.0,44,0.00,,SKC,0.06,VWS V14.01,2013-04-12 23:00:00,
2013-04-12 20:00:00,69.3,47.7,29.76,WSW,242,1.0,15.0,46,0.00,,SKC,0.06,VWS V14.01,2013-04-13 00:00:00,
2013-04-12 21:00:00,66.1,45.9,29.78,WSW,245,1.0,11.0,48,0.00,,SKC,0.06,VWS V14.01,2013-04-13 01:00:00,
2013-04-12 22:00:00,63.8,46.4,29.81,SW,223,1.0,11.0,53,0.00,,SKC,0.06,VWS V14.01,2013-04-13 02:00:00,
2013-04-12 23:00:00,61.0,45.7,29.84,South,190,2.0,7.0,57,0.00,,SKC,0.06,VWS V14.01,2013-04-13 03:00:00,